sensor_id;sensor_type;location;lat;lon;timestamp;pressure;altitude;pressure_sealevel;temperature;humidity
19259;BME280;9763;48.780;9.212;2024-01-25T00:03:26;99570.88;;;13.33;70.53
19259;BME280;9763;48.780;9.212;2024-01-25T00:06:51;99574.34;;;13.34;70.57
19259;BME280;9763;48.780;9.212;2024-01-25T00:10:17;99562.91;;;13.35;69.85
19259;BME280;9763;48.780;9.212;2024-01-25T00:13:41;99550.75;;;13.34;70.40
19259;BME280;9763;48.780;9.212;2024-01-25T00:17:05;99543.72;;;13.34;69.57
19259;BME280;9763;48.780;9.212;2024-01-25T00:20:30;99541.94;;;13.35;70.23
19259;BME280;9763;48.780;9.212;2024-01-25T00:23:54;99543.72;;;13.34;69.29
19259;BME280;9763;48.780;9.212;2024-01-25T00:27:17;99520.19;;;13.33;69.29
19259;BME280;9763;48.780;9.212;2024-01-25T00:30:41;99541.09;;;13.34;68.98
19259;BME280;9763;48.780;9.212;2024-01-25T00:34:06;99538.66;;;13.31;69.79
19259;BME280;9763;48.780;9.212;2024-01-25T00:37:32;99554.28;;;13.33;68.78
19259;BME280;9763;48.780;9.212;2024-01-25T00:40:56;99538.56;;;13.33;68.94
19259;BME280;9763;48.780;9.212;2024-01-25T00:44:21;99535.94;;;13.33;68.82
19259;BME280;9763;48.780;9.212;2024-01-25T00:47:45;99541.19;;;13.33;69.05
19259;BME280;9763;48.780;9.212;2024-01-25T00:51:15;99536.88;;;13.32;69.78
19259;BME280;9763;48.780;9.212;2024-01-25T00:54:41;99531.53;;;13.33;69.71
19259;BME280;9763;48.780;9.212;2024-01-25T00:58:06;99543.72;;;13.34;69.79
19259;BME280;9763;48.780;9.212;2024-01-25T01:01:31;99540.16;;;13.36;70.10
19259;BME280;9763;48.780;9.212;2024-01-25T01:04:55;99532.56;;;13.31;69.90
19259;BME280;9763;48.780;9.212;2024-01-25T01:08:20;99532.28;;;13.36;70.37
19259;BME280;9763;48.780;9.212;2024-01-25T01:11:46;99538.38;;;13.36;69.89
19259;BME280;9763;48.780;9.212;2024-01-25T01:15:11;99537.53;;;13.36;68.93
19259;BME280;9763;48.780;9.212;2024-01-25T01:18:35;99529.69;;;13.36;68.74
19259;BME280;9763;48.780;9.212;2024-01-25T01:22:01;99534.06;;;13.35;68.90
19259;BME280;9763;48.780;9.212;2024-01-25T01:25:24;99533.16;;;13.36;69.24
19259;BME280;9763;48.780;9.212;2024-01-25T01:28:49;99538.31;;;13.38;70.28
19259;BME280;9763;48.780;9.212;2024-01-25T01:32:13;99525.19;;;13.38;69.26
19259;BME280;9763;48.780;9.212;2024-01-25T01:35:37;99527.81;;;13.38;69.37
19259;BME280;9763;48.780;9.212;2024-01-25T01:39:01;99524.34;;;13.37;69.25
19259;BME280;9763;48.780;9.212;2024-01-25T01:42:25;99529.59;;;13.37;69.39
19259;BME280;9763;48.780;9.212;2024-01-25T01:45:50;99529.69;;;13.36;69.90
19259;BME280;9763;48.780;9.212;2024-01-25T01:49:14;99527.97;;;13.34;69.19
19259;BME280;9763;48.780;9.212;2024-01-25T01:52:39;99515.47;;;13.40;69.85
19259;BME280;9763;48.780;9.212;2024-01-25T01:56:04;99515.56;;;13.38;69.51
19259;BME280;9763;48.780;9.212;2024-01-25T01:59:28;99522.56;;;13.38;69.22
19259;BME280;9763;48.780;9.212;2024-01-25T02:02:53;99533.16;;;13.36;69.41
19259;BME280;9763;48.780;9.212;2024-01-25T02:06:17;99534.91;;;13.36;69.55
19259;BME280;9763;48.780;9.212;2024-01-25T02:09:41;99514.78;;;13.36;69.06
19259;BME280;9763;48.780;9.212;2024-01-25T02:13:05;99510.47;;;13.35;69.50
19259;BME280;9763;48.780;9.212;2024-01-25T02:16:29;99526.28;;;13.33;68.81
19259;BME280;9763;48.780;9.212;2024-01-25T02:19:54;99519.34;;;13.32;68.92
19259;BME280;9763;48.780;9.212;2024-01-25T02:23:19;99516.81;;;13.31;68.50
19259;BME280;9763;48.780;9.212;2024-01-25T02:26:43;99515.97;;;13.30;68.83
19259;BME280;9763;48.780;9.212;2024-01-25T02:30:09;99514.28;;;13.29;69.05
19259;BME280;9763;48.780;9.212;2024-01-25T02:33:32;99509.34;;;13.25;68.78
19259;BME280;9763;48.780;9.212;2024-01-25T02:37:03;99526.56;;;13.29;68.90
19259;BME280;9763;48.780;9.212;2024-01-25T02:40:29;99524.97;;;13.26;68.60
19259;BME280;9763;48.780;9.212;2024-01-25T02:43:53;99521.59;;;13.24;68.92
19259;BME280;9763;48.780;9.212;2024-01-25T02:47:16;99532.84;;;13.26;69.38
19259;BME280;9763;48.780;9.212;2024-01-25T02:50:41;99523.19;;;13.27;69.15
19259;BME280;9763;48.780;9.212;2024-01-25T02:54:04;99544.19;;;13.27;69.20
19259;BME280;9763;48.780;9.212;2024-01-25T02:57:30;99531.31;;;13.22;69.34
19259;BME280;9763;48.780;9.212;2024-01-25T03:00:54;99536.47;;;13.24;69.33
19259;BME280;9763;48.780;9.212;2024-01-25T03:04:17;99541.72;;;13.24;68.34
19259;BME280;9763;48.780;9.212;2024-01-25T03:07:41;99540.97;;;13.22;68.79
19259;BME280;9763;48.780;9.212;2024-01-25T03:11:05;99544.50;;;13.21;68.85
19259;BME280;9763;48.780;9.212;2024-01-25T03:14:30;99555.09;;;13.19;69.25
19259;BME280;9763;48.780;9.212;2024-01-25T03:17:53;99556.84;;;13.19;68.85
19259;BME280;9763;48.780;9.212;2024-01-25T03:21:17;99545.09;;;13.10;68.91
19259;BME280;9763;48.780;9.212;2024-01-25T03:24:40;99558.72;;;13.17;69.69
19259;BME280;9763;48.780;9.212;2024-01-25T03:28:05;99562.19;;;13.17;69.82
19259;BME280;9763;48.780;9.212;2024-01-25T03:31:30;99549.50;;;13.10;69.74
19259;BME280;9763;48.780;9.212;2024-01-25T03:34:54;99564.91;;;13.16;69.98
19259;BME280;9763;48.780;9.212;2024-01-25T03:38:17;99566.75;;;13.14;69.91
19259;BME280;9763;48.780;9.212;2024-01-25T03:41:41;99582.63;;;13.11;69.63
19259;BME280;9763;48.780;9.212;2024-01-25T03:45:07;99590.50;;;13.11;70.20
19259;BME280;9763;48.780;9.212;2024-01-25T03:48:32;99594.06;;;13.10;69.72
19259;BME280;9763;48.780;9.212;2024-01-25T03:51:55;99592.34;;;13.09;69.95
19259;BME280;9763;48.780;9.212;2024-01-25T03:55:19;99600.38;;;13.06;70.17
19259;BME280;9763;48.780;9.212;2024-01-25T03:58:43;99610.72;;;13.09;70.42
19259;BME280;9763;48.780;9.212;2024-01-25T04:02:08;99617.72;;;13.08;69.75
19259;BME280;9763;48.780;9.212;2024-01-25T04:05:33;99623.13;;;13.05;69.43
19259;BME280;9763;48.780;9.212;2024-01-25T04:08:57;99611.16;;;13.01;70.07
19259;BME280;9763;48.780;9.212;2024-01-25T04:12:21;99611.31;;;12.98;70.29
19259;BME280;9763;48.780;9.212;2024-01-25T04:15:45;99617.56;;;12.95;69.75
19259;BME280;9763;48.780;9.212;2024-01-25T04:19:09;99604.63;;;12.92;69.88
19259;BME280;9763;48.780;9.212;2024-01-25T04:22:36;99605.56;;;12.91;69.82
19259;BME280;9763;48.780;9.212;2024-01-25T04:26:00;99603.97;;;12.89;70.35
19259;BME280;9763;48.780;9.212;2024-01-25T04:29:23;99602.34;;;12.86;70.22
19259;BME280;9763;48.780;9.212;2024-01-25T04:32:47;99607.66;;;12.85;70.32
19259;BME280;9763;48.780;9.212;2024-01-25T04:36:11;99596.69;;;12.78;70.18
19259;BME280;9763;48.780;9.212;2024-01-25T04:39:36;99611.50;;;12.79;69.11
19259;BME280;9763;48.780;9.212;2024-01-25T04:43:00;99614.28;;;12.76;69.62
19259;BME280;9763;48.780;9.212;2024-01-25T04:46:23;99616.13;;;12.74;69.40
19259;BME280;9763;48.780;9.212;2024-01-25T04:49:47;99613.59;;;12.73;70.11
19259;BME280;9763;48.780;9.212;2024-01-25T04:53:11;99619.81;;;12.70;70.30
19259;BME280;9763;48.780;9.212;2024-01-25T04:56:36;99623.22;;;12.72;70.22
19259;BME280;9763;48.780;9.212;2024-01-25T04:59:59;99618.91;;;12.71;69.45
19259;BME280;9763;48.780;9.212;2024-01-25T05:03:27;99619.16;;;12.67;69.97
19259;BME280;9763;48.780;9.212;2024-01-25T05:06:50;99621.09;;;12.63;69.69
19259;BME280;9763;48.780;9.212;2024-01-25T05:10:14;99628.88;;;12.65;69.17
19259;BME280;9763;48.780;9.212;2024-01-25T05:13:40;99630.19;;;12.56;69.38
19259;BME280;9763;48.780;9.212;2024-01-25T05:17:03;99627.22;;;12.46;69.41
19259;BME280;9763;48.780;9.212;2024-01-25T05:20:27;99633.03;;;12.36;69.11
19259;BME280;9763;48.780;9.212;2024-01-25T05:23:55;99640.53;;;12.26;69.29
19259;BME280;9763;48.780;9.212;2024-01-25T05:27:18;99640.94;;;12.18;68.42
19259;BME280;9763;48.780;9.212;2024-01-25T05:30:43;99651.78;;;12.11;69.24
19259;BME280;9763;48.780;9.212;2024-01-25T05:34:07;99653.88;;;12.04;69.93
19259;BME280;9763;48.780;9.212;2024-01-25T05:37:31;99658.56;;;11.98;69.54
19259;BME280;9763;48.780;9.212;2024-01-25T05:40:54;99665.88;;;11.91;69.63
19259;BME280;9763;48.780;9.212;2024-01-25T05:44:18;99671.41;;;11.85;69.74
19259;BME280;9763;48.780;9.212;2024-01-25T05:47:43;99664.72;;;11.79;69.92
19259;BME280;9763;48.780;9.212;2024-01-25T05:51:07;99664.13;;;11.73;69.08
19259;BME280;9763;48.780;9.212;2024-01-25T05:54:30;99667.06;;;11.67;69.79
19259;BME280;9763;48.780;9.212;2024-01-25T05:57:54;99656.81;;;11.62;69.73
19259;BME280;9763;48.780;9.212;2024-01-25T06:01:17;99662.28;;;11.58;70.04
19259;BME280;9763;48.780;9.212;2024-01-25T06:04:42;99665.13;;;11.53;70.06
19259;BME280;9763;48.780;9.212;2024-01-25T06:08:06;99666.97;;;11.51;70.27
19259;BME280;9763;48.780;9.212;2024-01-25T06:11:30;99664.59;;;11.46;70.32
19259;BME280;9763;48.780;9.212;2024-01-25T06:14:55;99676.03;;;11.44;70.13
19259;BME280;9763;48.780;9.212;2024-01-25T06:18:19;99668.53;;;11.36;70.61
19259;BME280;9763;48.780;9.212;2024-01-25T06:21:47;99671.16;;;11.36;70.66
19259;BME280;9763;48.780;9.212;2024-01-25T06:25:11;99669.63;;;11.32;70.15
19259;BME280;9763;48.780;9.212;2024-01-25T06:28:34;99665.59;;;11.25;70.65
19259;BME280;9763;48.780;9.212;2024-01-25T06:31:58;99664.75;;;11.25;70.76
19259;BME280;9763;48.780;9.212;2024-01-25T06:35:25;99677.97;;;11.22;70.81
19259;BME280;9763;48.780;9.212;2024-01-25T06:38:50;99675.50;;;11.18;71.01
19259;BME280;9763;48.780;9.212;2024-01-25T06:42:14;99661.88;;;11.12;70.83
19259;BME280;9763;48.780;9.212;2024-01-25T06:45:37;99669.69;;;11.12;71.18
19259;BME280;9763;48.780;9.212;2024-01-25T06:49:02;99686.28;;;11.11;70.88
19259;BME280;9763;48.780;9.212;2024-01-25T06:52:26;99674.44;;;11.04;71.54
19259;BME280;9763;48.780;9.212;2024-01-25T06:55:53;99695.22;;;11.07;71.13
19259;BME280;9763;48.780;9.212;2024-01-25T06:59:16;99709.19;;;11.06;71.56
19259;BME280;9763;48.780;9.212;2024-01-25T07:02:41;99710.09;;;11.05;71.90
19259;BME280;9763;48.780;9.212;2024-01-25T07:06:05;99713.63;;;11.04;71.54
19259;BME280;9763;48.780;9.212;2024-01-25T07:09:29;99718.00;;;11.03;71.27
19259;BME280;9763;48.780;9.212;2024-01-25T07:12:54;99721.59;;;11.01;71.40
19259;BME280;9763;48.780;9.212;2024-01-25T07:16:18;99732.84;;;11.03;71.71
19259;BME280;9763;48.780;9.212;2024-01-25T07:19:42;99720.69;;;11.02;71.17
19259;BME280;9763;48.780;9.212;2024-01-25T07:23:06;99718.16;;;11.00;71.78
19259;BME280;9763;48.780;9.212;2024-01-25T07:26:29;99714.69;;;11.00;71.31
19259;BME280;9763;48.780;9.212;2024-01-25T07:29:54;99711.09;;;11.02;71.79
19259;BME280;9763;48.780;9.212;2024-01-25T07:33:18;99719.00;;;11.01;71.23
19259;BME280;9763;48.780;9.212;2024-01-25T07:36:41;99718.06;;;11.02;72.21
19259;BME280;9763;48.780;9.212;2024-01-25T07:40:08;99725.91;;;11.02;72.19
19259;BME280;9763;48.780;9.212;2024-01-25T07:43:32;99724.94;;;11.04;71.61
19259;BME280;9763;48.780;9.212;2024-01-25T07:46:57;99729.25;;;11.05;72.24
19259;BME280;9763;48.780;9.212;2024-01-25T07:50:20;99731.72;;;11.08;72.16
19259;BME280;9763;48.780;9.212;2024-01-25T07:53:44;99723.88;;;11.08;72.16
19259;BME280;9763;48.780;9.212;2024-01-25T07:57:09;99702.63;;;10.97;71.79
19259;BME280;9763;48.780;9.212;2024-01-25T08:00:32;99718.59;;;11.10;72.34
19259;BME280;9763;48.780;9.212;2024-01-25T08:03:57;99711.50;;;11.12;71.72
19259;BME280;9763;48.780;9.212;2024-01-25T08:07:22;99707.91;;;11.14;72.66
19259;BME280;9763;48.780;9.212;2024-01-25T08:10:46;99719.94;;;11.18;72.38
19259;BME280;9763;48.780;9.212;2024-01-25T08:14:10;99716.47;;;11.18;71.94
19259;BME280;9763;48.780;9.212;2024-01-25T08:17:34;99716.25;;;11.23;72.88
19259;BME280;9763;48.780;9.212;2024-01-25T08:21:00;99725.28;;;11.34;72.56
19259;BME280;9763;48.780;9.212;2024-01-25T08:24:23;99730.28;;;11.39;72.65
19259;BME280;9763;48.780;9.212;2024-01-25T08:27:47;99730.00;;;11.45;72.65
19259;BME280;9763;48.780;9.212;2024-01-25T08:31:11;99716.16;;;11.43;72.66
19259;BME280;9763;48.780;9.212;2024-01-25T08:34:35;99729.50;;;11.55;72.78
19259;BME280;9763;48.780;9.212;2024-01-25T08:38:00;99720.50;;;11.61;72.24
19259;BME280;9763;48.780;9.212;2024-01-25T08:41:23;99730.75;;;11.66;72.53
19259;BME280;9763;48.780;9.212;2024-01-25T08:44:47;99736.69;;;11.69;72.68
19259;BME280;9763;48.780;9.212;2024-01-25T08:48:12;99750.50;;;11.71;71.87
19259;BME280;9763;48.780;9.212;2024-01-25T08:51:36;99758.97;;;11.78;72.64
19259;BME280;9763;48.780;9.212;2024-01-25T08:55:01;99754.44;;;11.81;71.84
19259;BME280;9763;48.780;9.212;2024-01-25T08:58:25;99748.28;;;11.82;72.37
19259;BME280;9763;48.780;9.212;2024-01-25T09:01:49;99756.03;;;11.84;71.72
19259;BME280;9763;48.780;9.212;2024-01-25T09:05:12;99767.28;;;11.86;71.91
19259;BME280;9763;48.780;9.212;2024-01-25T09:08:37;99767.13;;;11.89;72.52
19259;BME280;9763;48.780;9.212;2024-01-25T09:12:03;99762.53;;;11.94;71.97
19259;BME280;9763;48.780;9.212;2024-01-25T09:15:27;99778.63;;;12.04;72.56
19259;BME280;9763;48.780;9.212;2024-01-25T09:18:51;99774.63;;;12.14;72.02
19259;BME280;9763;48.780;9.212;2024-01-25T09:22:15;99786.41;;;12.22;72.60
19259;BME280;9763;48.780;9.212;2024-01-25T09:25:40;99800.50;;;12.37;72.42
19259;BME280;9763;48.780;9.212;2024-01-25T09:29:06;99789.66;;;12.45;72.19
19259;BME280;9763;48.780;9.212;2024-01-25T09:32:29;99789.28;;;12.52;71.50
19259;BME280;9763;48.780;9.212;2024-01-25T09:35:53;99785.75;;;12.53;71.73
19259;BME280;9763;48.780;9.212;2024-01-25T09:39:17;99799.28;;;12.61;71.32
19259;BME280;9763;48.780;9.212;2024-01-25T09:42:42;99792.97;;;12.66;70.89
19259;BME280;9763;48.780;9.212;2024-01-25T09:46:13;99796.81;;;12.76;71.36
19259;BME280;9763;48.780;9.212;2024-01-25T09:49:39;99802.47;;;12.84;70.96
19259;BME280;9763;48.780;9.212;2024-01-25T09:53:05;99795.09;;;12.92;71.35
19259;BME280;9763;48.780;9.212;2024-01-25T09:56:32;99811.84;;;13.05;71.41
19259;BME280;9763;48.780;9.212;2024-01-25T09:59:56;99802.97;;;13.25;71.45
19259;BME280;9763;48.780;9.212;2024-01-25T10:03:20;99803.34;;;13.50;71.27
19259;BME280;9763;48.780;9.212;2024-01-25T10:06:44;99802.47;;;13.65;70.60
19259;BME280;9763;48.780;9.212;2024-01-25T10:10:10;99808.75;;;13.79;71.00
19259;BME280;9763;48.780;9.212;2024-01-25T10:13:40;99805.63;;;13.88;70.19
19259;BME280;9763;48.780;9.212;2024-01-25T10:17:05;99792.69;;;13.85;70.40
19259;BME280;9763;48.780;9.212;2024-01-25T10:20:32;99805.72;;;13.86;70.48
19259;BME280;9763;48.780;9.212;2024-01-25T10:23:59;99783.56;;;13.76;69.59
19259;BME280;9763;48.780;9.212;2024-01-25T10:27:23;99800.97;;;13.77;70.53
19259;BME280;9763;48.780;9.212;2024-01-25T10:30:47;99786.34;;;13.73;70.07
19259;BME280;9763;48.780;9.212;2024-01-25T10:34:14;99788.44;;;13.66;70.11
19259;BME280;9763;48.780;9.212;2024-01-25T10:37:40;99788.13;;;13.73;69.82
19259;BME280;9763;48.780;9.212;2024-01-25T10:41:05;99789.13;;;13.86;70.51
19259;BME280;9763;48.780;9.212;2024-01-25T10:44:29;99783.34;;;13.95;69.79
19259;BME280;9763;48.780;9.212;2024-01-25T10:47:53;99770.13;;;14.26;70.47
19259;BME280;9763;48.780;9.212;2024-01-25T10:51:17;99754.72;;;15.08;71.02
19259;BME280;9763;48.780;9.212;2024-01-25T10:54:43;99754.75;;;15.91;71.22
19259;BME280;9763;48.780;9.212;2024-01-25T10:58:07;99753.66;;;16.85;70.35
19259;BME280;9763;48.780;9.212;2024-01-25T11:01:33;99751.66;;;17.50;69.95
19259;BME280;9763;48.780;9.212;2024-01-25T11:04:59;99752.94;;;17.81;68.89
19259;BME280;9763;48.780;9.212;2024-01-25T11:08:24;99742.94;;;17.74;68.66
19259;BME280;9763;48.780;9.212;2024-01-25T11:11:49;99734.22;;;18.08;69.07
19259;BME280;9763;48.780;9.212;2024-01-25T11:15:21;99727.06;;;18.67;67.68
19259;BME280;9763;48.780;9.212;2024-01-25T11:18:50;99715.22;;;18.49;66.90
19259;BME280;9763;48.780;9.212;2024-01-25T11:22:15;99705.59;;;18.02;67.19
19259;BME280;9763;48.780;9.212;2024-01-25T11:25:38;99715.19;;;17.68;66.32
19259;BME280;9763;48.780;9.212;2024-01-25T11:29:04;99713.31;;;17.21;66.47
19259;BME280;9763;48.780;9.212;2024-01-25T11:32:28;99688.06;;;16.68;66.50
19259;BME280;9763;48.780;9.212;2024-01-25T11:35:54;99705.66;;;16.42;65.91
19259;BME280;9763;48.780;9.212;2024-01-25T11:39:18;99692.66;;;16.13;67.17
19259;BME280;9763;48.780;9.212;2024-01-25T11:42:44;99686.47;;;15.88;65.80
19259;BME280;9763;48.780;9.212;2024-01-25T11:46:10;99689.50;;;15.69;67.06
19259;BME280;9763;48.780;9.212;2024-01-25T11:49:35;99678.91;;;15.56;67.37
19259;BME280;9763;48.780;9.212;2024-01-25T11:52:59;99671.78;;;15.44;67.16
19259;BME280;9763;48.780;9.212;2024-01-25T11:56:27;99685.81;;;15.30;67.24
19259;BME280;9763;48.780;9.212;2024-01-25T11:59:52;99689.47;;;15.28;67.63
19259;BME280;9763;48.780;9.212;2024-01-25T12:03:17;99696.34;;;15.30;67.82
19259;BME280;9763;48.780;9.212;2024-01-25T12:06:41;99688.34;;;15.32;68.07
19259;BME280;9763;48.780;9.212;2024-01-25T12:10:07;99688.91;;;15.23;67.96
19259;BME280;9763;48.780;9.212;2024-01-25T12:13:34;99682.75;;;15.09;67.40
19259;BME280;9763;48.780;9.212;2024-01-25T12:16:58;99676.38;;;14.99;68.33
19259;BME280;9763;48.780;9.212;2024-01-25T12:20:23;99662.03;;;14.91;67.58
19259;BME280;9763;48.780;9.212;2024-01-25T12:23:47;99658.66;;;14.89;68.14
19259;BME280;9763;48.780;9.212;2024-01-25T12:27:10;99662.88;;;14.91;68.39
19259;BME280;9763;48.780;9.212;2024-01-25T12:30:35;99658.84;;;14.86;67.34
19259;BME280;9763;48.780;9.212;2024-01-25T12:34:00;99649.84;;;14.75;67.53
19259;BME280;9763;48.780;9.212;2024-01-25T12:37:25;99640.84;;;14.65;67.76
19259;BME280;9763;48.780;9.212;2024-01-25T12:40:50;99642.25;;;14.57;67.87
19259;BME280;9763;48.780;9.212;2024-01-25T12:44:14;99636.81;;;14.46;67.75
19259;BME280;9763;48.780;9.212;2024-01-25T12:47:38;99651.34;;;14.51;68.45
19259;BME280;9763;48.780;9.212;2024-01-25T12:51:02;99648.53;;;14.54;68.36
19259;BME280;9763;48.780;9.212;2024-01-25T12:54:27;99636.25;;;14.55;68.75
19259;BME280;9763;48.780;9.212;2024-01-25T12:57:51;99631.75;;;14.57;68.25
19259;BME280;9763;48.780;9.212;2024-01-25T13:01:17;99624.06;;;14.54;68.28
19259;BME280;9763;48.780;9.212;2024-01-25T13:04:41;99627.06;;;14.48;68.04
19259;BME280;9763;48.780;9.212;2024-01-25T13:08:05;99616.16;;;14.39;68.41
19259;BME280;9763;48.780;9.212;2024-01-25T13:11:31;99595.78;;;14.29;68.07
19259;BME280;9763;48.780;9.212;2024-01-25T13:14:54;99613.16;;;14.31;68.82
19259;BME280;9763;48.780;9.212;2024-01-25T13:18:18;99598.59;;;14.26;68.97
19259;BME280;9763;48.780;9.212;2024-01-25T13:21:41;99599.75;;;14.36;69.09
19259;BME280;9763;48.780;9.212;2024-01-25T13:25:06;99592.72;;;14.36;69.07
19259;BME280;9763;48.780;9.212;2024-01-25T13:28:33;99586.16;;;14.44;69.21
19259;BME280;9763;48.780;9.212;2024-01-25T13:31:57;99579.78;;;14.48;68.56
19259;BME280;9763;48.780;9.212;2024-01-25T13:35:21;99577.59;;;14.54;69.13
19259;BME280;9763;48.780;9.212;2024-01-25T13:38:45;99570.38;;;14.58;69.15
19259;BME280;9763;48.780;9.212;2024-01-25T13:42:08;99565.88;;;14.60;69.29
19259;BME280;9763;48.780;9.212;2024-01-25T13:45:33;99574.69;;;14.59;69.17
19259;BME280;9763;48.780;9.212;2024-01-25T13:48:57;99577.34;;;14.59;68.98
19259;BME280;9763;48.780;9.212;2024-01-25T13:52:21;99560.81;;;14.57;69.20
19259;BME280;9763;48.780;9.212;2024-01-25T13:55:44;99569.63;;;14.56;68.86
19259;BME280;9763;48.780;9.212;2024-01-25T13:59:08;99568.03;;;14.53;69.09
19259;BME280;9763;48.780;9.212;2024-01-25T14:02:33;99576.94;;;14.51;69.15
19259;BME280;9763;48.780;9.212;2024-01-25T14:05:57;99566.66;;;14.48;69.24
19259;BME280;9763;48.780;9.212;2024-01-25T14:09:21;99571.25;;;14.44;69.04
19259;BME280;9763;48.780;9.212;2024-01-25T14:12:44;99561.84;;;14.40;68.76
19259;BME280;9763;48.780;9.212;2024-01-25T14:16:08;99562.84;;;14.37;69.23
19259;BME280;9763;48.780;9.212;2024-01-25T14:19:40;99553.84;;;14.27;68.77
19259;BME280;9763;48.780;9.212;2024-01-25T14:23:04;99555.38;;;14.31;68.79
19259;BME280;9763;48.780;9.212;2024-01-25T14:26:27;99544.09;;;14.29;68.75
19259;BME280;9763;48.780;9.212;2024-01-25T14:29:51;99535.38;;;14.29;69.39
19259;BME280;9763;48.780;9.212;2024-01-25T14:33:15;99540.81;;;14.26;68.83
19259;BME280;9763;48.780;9.212;2024-01-25T14:36:40;99541.78;;;14.25;69.33
19259;BME280;9763;48.780;9.212;2024-01-25T14:40:06;99537.47;;;14.24;69.41
19259;BME280;9763;48.780;9.212;2024-01-25T14:43:50;99541.31;;;14.18;69.53
19259;BME280;9763;48.780;9.212;2024-01-25T14:47:14;99529.19;;;14.16;69.57
19259;BME280;9763;48.780;9.212;2024-01-25T14:50:42;99540.72;;;14.13;69.62
19259;BME280;9763;48.780;9.212;2024-01-25T14:54:07;99547.56;;;14.16;69.43
19259;BME280;9763;48.780;9.212;2024-01-25T14:57:31;99539.97;;;14.25;69.60
19259;BME280;9763;48.780;9.212;2024-01-25T15:00:54;99524.22;;;14.25;68.87
19259;BME280;9763;48.780;9.212;2024-01-25T15:04:18;99536.03;;;14.32;68.62
19259;BME280;9763;48.780;9.212;2024-01-25T15:07:42;99527.59;;;14.27;69.02
19259;BME280;9763;48.780;9.212;2024-01-25T15:11:07;99530.53;;;14.23;68.90
19259;BME280;9763;48.780;9.212;2024-01-25T15:14:31;99525.81;;;14.14;69.15
19259;BME280;9763;48.780;9.212;2024-01-25T15:17:55;99532.41;;;14.06;69.37
19259;BME280;9763;48.780;9.212;2024-01-25T15:21:18;99528.84;;;14.07;69.43
19259;BME280;9763;48.780;9.212;2024-01-25T15:24:42;99540.00;;;14.11;68.97
19259;BME280;9763;48.780;9.212;2024-01-25T15:28:07;99538.75;;;14.17;68.85
19259;BME280;9763;48.780;9.212;2024-01-25T15:31:30;99544.69;;;14.20;68.77
19259;BME280;9763;48.780;9.212;2024-01-25T15:34:54;99540.53;;;14.16;69.39
19259;BME280;9763;48.780;9.212;2024-01-25T15:38:17;99550.69;;;14.22;68.86
19259;BME280;9763;48.780;9.212;2024-01-25T15:41:42;99543.56;;;14.24;69.03
19259;BME280;9763;48.780;9.212;2024-01-25T15:45:07;99533.78;;;14.26;68.92
19259;BME280;9763;48.780;9.212;2024-01-25T15:48:31;99531.81;;;14.30;68.53
19259;BME280;9763;48.780;9.212;2024-01-25T15:51:55;99526.56;;;14.30;69.01
19259;BME280;9763;48.780;9.212;2024-01-25T15:55:19;99521.41;;;14.28;68.82
19259;BME280;9763;48.780;9.212;2024-01-25T15:58:42;99535.56;;;14.26;69.02
19259;BME280;9763;48.780;9.212;2024-01-25T16:02:07;99523.69;;;14.20;68.95
19259;BME280;9763;48.780;9.212;2024-01-25T16:05:31;99524.22;;;14.25;68.86
19259;BME280;9763;48.780;9.212;2024-01-25T16:09:00;99527.91;;;14.23;68.94
19259;BME280;9763;48.780;9.212;2024-01-25T16:12:24;99494.72;;;14.07;68.87
19259;BME280;9763;48.780;9.212;2024-01-25T16:15:47;99510.47;;;14.22;68.67
19259;BME280;9763;48.780;9.212;2024-01-25T16:19:13;99515.72;;;14.22;69.22
19259;BME280;9763;48.780;9.212;2024-01-25T16:22:36;99514.78;;;14.23;68.98
19259;BME280;9763;48.780;9.212;2024-01-25T16:26:00;99521.81;;;14.22;69.00
19259;BME280;9763;48.780;9.212;2024-01-25T16:29:24;99520.28;;;14.18;68.91
19259;BME280;9763;48.780;9.212;2024-01-25T16:32:48;99501.75;;;14.07;68.62
19259;BME280;9763;48.780;9.212;2024-01-25T16:36:13;99524.88;;;14.15;68.97
19259;BME280;9763;48.780;9.212;2024-01-25T16:39:36;99517.84;;;14.15;68.80
19259;BME280;9763;48.780;9.212;2024-01-25T16:43:00;99522.34;;;14.13;68.77
19259;BME280;9763;48.780;9.212;2024-01-25T16:46:24;99527.81;;;14.10;68.30
19259;BME280;9763;48.780;9.212;2024-01-25T16:49:47;99533.16;;;14.09;68.73
19259;BME280;9763;48.780;9.212;2024-01-25T16:53:12;99527.22;;;14.05;68.83
19259;BME280;9763;48.780;9.212;2024-01-25T16:56:36;99528.25;;;14.02;68.94
19259;BME280;9763;48.780;9.212;2024-01-25T16:59:59;99520.03;;;13.94;69.44
19259;BME280;9763;48.780;9.212;2024-01-25T17:03:26;99522.72;;;13.93;69.03
19259;BME280;9763;48.780;9.212;2024-01-25T17:06:50;99522.72;;;13.93;69.69
19259;BME280;9763;48.780;9.212;2024-01-25T17:10:15;99521.88;;;13.92;69.76
19259;BME280;9763;48.780;9.212;2024-01-25T17:13:41;99526.28;;;13.92;69.25
19259;BME280;9763;48.780;9.212;2024-01-25T17:17:05;99526.28;;;13.92;69.66
19259;BME280;9763;48.780;9.212;2024-01-25T17:20:29;99522.47;;;13.97;69.46
19259;BME280;9763;48.780;9.212;2024-01-25T17:23:53;99525.84;;;13.99;68.93
19259;BME280;9763;48.780;9.212;2024-01-25T17:27:18;99529.50;;;13.97;68.73
19259;BME280;9763;48.780;9.212;2024-01-25T17:30:43;99526.03;;;13.96;69.22
19259;BME280;9763;48.780;9.212;2024-01-25T17:34:07;99522.56;;;13.96;69.08
19259;BME280;9763;48.780;9.212;2024-01-25T17:37:34;99531.38;;;13.95;69.11
19259;BME280;9763;48.780;9.212;2024-01-25T17:40:58;99527.97;;;13.93;69.55
19259;BME280;9763;48.780;9.212;2024-01-25T17:44:23;99524.81;;;13.88;69.53
19259;BME280;9763;48.780;9.212;2024-01-25T17:47:46;99521.69;;;13.67;70.05
19259;BME280;9763;48.780;9.212;2024-01-25T17:51:10;99533.53;;;13.44;70.70
19259;BME280;9763;48.780;9.212;2024-01-25T17:54:34;99534.63;;;13.26;70.59
19259;BME280;9763;48.780;9.212;2024-01-25T17:57:58;99532.63;;;13.15;70.80
19259;BME280;9763;48.780;9.212;2024-01-25T18:01:24;99536.16;;;13.14;71.05
19259;BME280;9763;48.780;9.212;2024-01-25T18:04:47;99533.75;;;13.10;71.48
19259;BME280;9763;48.780;9.212;2024-01-25T18:08:11;99532.84;;;13.11;71.43
19259;BME280;9763;48.780;9.212;2024-01-25T18:11:35;99530.13;;;13.12;71.50
19259;BME280;9763;48.780;9.212;2024-01-25T18:14:58;99531.66;;;13.16;71.50
19259;BME280;9763;48.780;9.212;2024-01-25T18:18:26;99528.69;;;13.22;70.87